Time;durP1;ratioP1;P1;durP2;ratioP2;P2;SDS_P1;SDS_P2;PMS_P1;PMS_P2;Temp;Humidity;BMP_temperature;BMP_pressure;BME280_temperature;BME280_humidity;BME280_pressure;Samples;Min_cycle;Max_cycle;Signal;HPM_P1;HPM_P2
2023/10/26 00:01:19;;;;;;;3.88;2.33;;;;;;;;;;5017480;28;20283;-76
2023/10/26 00:03:44;;;;;;;5.40;2.42;;;;;;;;;;5017134;28;20373;-76
2023/10/26 00:06:09;;;;;;;3.97;2.65;;;;;;;;;;5016721;28;20024;-76
2023/10/26 00:08:35;;;;;;;3.35;2.53;;;;;;;;;;5015922;28;20030;-76
2023/10/26 00:11:03;;;;;;;4.72;2.30;;;;;;;;;;5015641;28;20423;-76
2023/10/26 00:13:28;;;;;;;3.20;2.35;;;;;;;;;;5017145;28;20034;-75
2023/10/26 00:15:54;;;;;;;7.32;2.55;;;;;;;;;;4999464;28;20121;-76
2023/10/26 00:18:19;;;;;;;2.63;2.22;;;;;;;;;;5017153;28;20021;-76
2023/10/26 00:20:45;;;;;;;7.53;2.60;;;;;;;;;;4999036;28;20030;-74
2023/10/26 00:23:10;;;;;;;3.53;2.30;;;;;;;;;;4999400;28;20101;-75
2023/10/26 00:25:36;;;;;;;3.03;2.50;;;;;;;;;;5017252;28;20392;-73
2023/10/26 00:28:01;;;;;;;3.25;2.45;;;;;;;;;;5000571;28;20033;-76
2023/10/26 00:30:26;;;;;;;5.40;2.95;;;;;;;;;;5017013;28;20050;-76
2023/10/26 00:32:51;;;;;;;2.97;2.37;;;;;;;;;;5016730;28;20041;-76
2023/10/26 00:35:17;;;;;;;4.05;2.75;;;;;;;;;;5016743;28;20331;-75
2023/10/26 00:37:42;;;;;;;5.00;2.67;;;;;;;;;;5016724;28;20397;-75
2023/10/26 00:40:08;;;;;;;4.03;2.88;;;;;;;;;;5016704;28;20030;-75
2023/10/26 00:42:33;;;;;;;3.95;2.80;;;;;;;;;;5016771;28;20033;-75
2023/10/26 00:44:58;;;;;;;4.07;2.88;;;;;;;;;;5015055;28;20025;-75
2023/10/26 00:47:25;;;;;;;4.38;3.10;;;;;;;;;;4997462;28;20026;-75
2023/10/26 00:49:51;;;;;;;4.47;3.08;;;;;;;;;;5014396;28;20021;-75
2023/10/26 00:52:17;;;;;;;3.60;3.00;;;;;;;;;;5015656;28;20512;-74
2023/10/26 00:54:42;;;;;;;4.57;2.90;;;;;;;;;;4998188;28;20033;-75
2023/10/26 00:57:09;;;;;;;5.25;3.08;;;;;;;;;;4997524;28;20034;-75
2023/10/26 00:59:35;;;;;;;3.50;2.67;;;;;;;;;;5016140;28;20028;-75
2023/10/26 01:02:02;;;;;;;4.82;3.10;;;;;;;;;;5015828;28;20489;-75
2023/10/26 01:04:27;;;;;;;3.90;2.75;;;;;;;;;;4998305;28;20116;-75
2023/10/26 01:06:53;;;;;;;6.47;2.85;;;;;;;;;;5016302;28;20057;-75
2023/10/26 01:09:19;;;;;;;4.43;2.90;;;;;;;;;;5014734;28;20444;-75
2023/10/26 01:11:45;;;;;;;3.72;2.97;;;;;;;;;;5015485;28;20025;-75
2023/10/26 01:14:10;;;;;;;3.88;2.92;;;;;;;;;;5014554;28;20071;-75
2023/10/26 01:16:36;;;;;;;4.75;3.30;;;;;;;;;;5014834;28;20036;-75
2023/10/26 01:19:03;;;;;;;3.28;2.90;;;;;;;;;;5015406;28;20107;-75
2023/10/26 01:21:46;;;;;;;5.00;3.25;;;;;;;;;;5015317;28;20032;-74
2023/10/26 01:24:11;;;;;;;5.27;3.10;;;;;;;;;;5015616;28;20485;-75
2023/10/26 01:26:37;;;;;;;4.75;3.05;;;;;;;;;;5015567;28;20266;-75
2023/10/26 01:29:03;;;;;;;4.35;3.08;;;;;;;;;;5015433;28;20084;-75
2023/10/26 01:31:28;;;;;;;3.65;3.25;;;;;;;;;;5015198;28;20022;-75
2023/10/26 01:33:53;;;;;;;3.78;2.90;;;;;;;;;;5014545;28;20029;-75
2023/10/26 01:36:18;;;;;;;3.50;2.85;;;;;;;;;;5014910;28;20112;-74
2023/10/26 01:38:44;;;;;;;3.50;2.80;;;;;;;;;;5015731;28;20032;-75
2023/10/26 01:41:09;;;;;;;4.65;3.08;;;;;;;;;;5015274;28;20064;-75
2023/10/26 01:43:34;;;;;;;3.40;2.90;;;;;;;;;;4996905;28;20030;-75
2023/10/26 01:45:59;;;;;;;4.60;3.00;;;;;;;;;;5014941;28;20056;-75
2023/10/26 01:48:26;;;;;;;5.35;3.03;;;;;;;;;;5015550;28;20072;-75
2023/10/26 01:50:51;;;;;;;4.80;2.83;;;;;;;;;;5015510;28;20028;-75
2023/10/26 01:53:17;;;;;;;3.70;2.83;;;;;;;;;;5015748;28;20022;-74
2023/10/26 01:55:42;;;;;;;3.78;3.17;;;;;;;;;;5015376;28;20033;-74
2023/10/26 01:58:07;;;;;;;3.80;3.35;;;;;;;;;;5015142;28;20076;-74
2023/10/26 02:00:32;;;;;;;6.35;3.83;;;;;;;;;;5014936;28;20040;-75
2023/10/26 02:02:58;;;;;;;4.75;3.15;;;;;;;;;;4997061;28;20458;-75
2023/10/26 02:05:23;;;;;;;5.30;3.40;;;;;;;;;;5015368;28;20084;-74
2023/10/26 02:07:48;;;;;;;4.00;3.47;;;;;;;;;;4997481;28;20028;-75
2023/10/26 02:10:14;;;;;;;7.30;3.53;;;;;;;;;;5015199;28;20056;-75
2023/10/26 02:12:40;;;;;;;5.75;3.88;;;;;;;;;;5015004;28;20026;-75
2023/10/26 02:15:06;;;;;;;5.07;3.40;;;;;;;;;;4997230;28;20029;-76
2023/10/26 02:17:31;;;;;;;4.60;3.78;;;;;;;;;;4997510;28;20033;-75
2023/10/26 02:19:56;;;;;;;4.33;3.50;;;;;;;;;;5014770;28;20026;-75
2023/10/26 02:22:21;;;;;;;5.90;3.55;;;;;;;;;;5015794;28;20251;-76
2023/10/26 02:24:46;;;;;;;5.03;3.88;;;;;;;;;;5014592;28;20022;-75
2023/10/26 02:27:12;;;;;;;4.28;3.63;;;;;;;;;;5014571;28;20046;-76
2023/10/26 02:29:37;;;;;;;4.90;3.70;;;;;;;;;;5014871;28;20029;-75
2023/10/26 02:32:03;;;;;;;6.97;3.67;;;;;;;;;;5014624;28;20049;-76
2023/10/26 02:34:28;;;;;;;6.38;3.53;;;;;;;;;;4996997;28;20030;-76
2023/10/26 02:36:53;;;;;;;4.20;3.47;;;;;;;;;;5015332;28;20018;-76
2023/10/26 02:39:18;;;;;;;4.75;3.35;;;;;;;;;;5015328;28;20025;-75
2023/10/26 02:41:44;;;;;;;4.93;3.42;;;;;;;;;;5014982;28;20064;-75
2023/10/26 02:44:09;;;;;;;3.40;2.80;;;;;;;;;;5015492;28;20107;-75
2023/10/26 02:46:34;;;;;;;3.78;3.17;;;;;;;;;;4997352;28;20113;-74
2023/10/26 02:48:59;;;;;;;4.53;3.45;;;;;;;;;;5015022;28;20029;-75
2023/10/26 02:51:25;;;;;;;5.70;3.27;;;;;;;;;;5014926;28;20017;-75
2023/10/26 02:53:50;;;;;;;3.08;2.67;;;;;;;;;;4997035;28;20398;-75
2023/10/26 02:56:15;;;;;;;3.92;2.63;;;;;;;;;;5014830;28;20033;-75
2023/10/26 02:58:40;;;;;;;3.53;3.00;;;;;;;;;;5014587;28;20421;-76
2023/10/26 03:01:06;;;;;;;4.22;3.17;;;;;;;;;;4997023;28;20033;-76
2023/10/26 03:03:31;;;;;;;6.60;2.97;;;;;;;;;;5014489;28;20026;-75
2023/10/26 03:06:00;;;;;;;3.50;2.92;;;;;;;;;;5014172;28;20024;-75
2023/10/26 03:08:25;;;;;;;3.08;2.70;;;;;;;;;;5014526;28;20034;-76
2023/10/26 03:10:50;;;;;;;4.13;2.70;;;;;;;;;;5014235;28;20101;-75
2023/10/26 03:13:16;;;;;;;4.37;2.73;;;;;;;;;;5015189;28;20077;-76
2023/10/26 03:15:41;;;;;;;3.25;2.72;;;;;;;;;;4998568;28;20309;-76
2023/10/26 03:18:06;;;;;;;3.28;2.70;;;;;;;;;;5018068;28;20030;-76
2023/10/26 03:20:32;;;;;;;3.42;2.58;;;;;;;;;;5017640;28;20396;-76
2023/10/26 03:22:58;;;;;;;3.70;2.70;;;;;;;;;;5000277;28;20026;-76
2023/10/26 03:25:23;;;;;;;3.53;2.90;;;;;;;;;;5017737;28;20026;-75
2023/10/26 03:27:48;;;;;;;3.63;2.53;;;;;;;;;;5018142;28;20018;-76
2023/10/26 03:30:14;;;;;;;4.63;2.10;;;;;;;;;;5000259;28;20030;-77
2023/10/26 03:32:39;;;;;;;3.08;2.08;;;;;;;;;;5017581;28;20025;-76
2023/10/26 03:35:04;;;;;;;3.03;2.05;;;;;;;;;;5015844;28;20026;-76
2023/10/26 03:37:30;;;;;;;3.10;2.20;;;;;;;;;;5000405;28;20053;-75
2023/10/26 03:39:55;;;;;;;1.98;1.77;;;;;;;;;;5017597;28;20113;-76
2023/10/26 03:42:20;;;;;;;2.30;1.88;;;;;;;;;;5017869;28;20026;-77
2023/10/26 03:44:46;;;;;;;2.97;2.15;;;;;;;;;;5018189;28;20088;-75
2023/10/26 03:47:11;;;;;;;2.80;1.85;;;;;;;;;;5017100;28;20064;-75
2023/10/26 03:49:46;;;;;;;2.20;1.58;;;;;;;;;;5017386;28;20030;-74
2023/10/26 03:52:11;;;;;;;1.75;1.10;;;;;;;;;;5018315;28;20057;-75
2023/10/26 03:54:37;;;;;;;1.55;0.98;;;;;;;;;;5000399;28;20033;-75
2023/10/26 03:57:03;;;;;;;0.80;0.80;;;;;;;;;;5000539;28;20400;-75
2023/10/26 03:59:28;;;;;;;1.20;0.57;;;;;;;;;;5017933;28;20026;-75
2023/10/26 04:01:54;;;;;;;0.60;0.60;;;;;;;;;;5000699;28;20024;-75
2023/10/26 04:04:19;;;;;;;1.45;0.40;;;;;;;;;;5000794;28;20022;-75
2023/10/26 04:06:45;;;;;;;0.57;0.50;;;;;;;;;;5018074;28;20105;-74
2023/10/26 04:09:10;;;;;;;0.40;0.30;;;;;;;;;;5000991;28;20021;-76
2023/10/26 04:11:35;;;;;;;0.88;0.55;;;;;;;;;;5018744;28;20485;-76
2023/10/26 04:14:01;;;;;;;0.32;0.32;;;;;;;;;;5017830;28;20032;-76
2023/10/26 04:16:26;;;;;;;0.47;0.47;;;;;;;;;;5000933;28;20041;-76
2023/10/26 04:18:51;;;;;;;0.70;0.50;;;;;;;;;;5017359;28;20508;-76
2023/10/26 04:21:17;;;;;;;0.50;0.50;;;;;;;;;;5017712;28;20117;-75
2023/10/26 04:23:42;;;;;;;0.40;0.30;;;;;;;;;;5017887;28;20022;-76
2023/10/26 04:26:09;;;;;;;0.55;0.43;;;;;;;;;;5017039;28;20120;-76
2023/10/26 04:28:35;;;;;;;0.40;0.40;;;;;;;;;;4999982;28;20451;-76
2023/10/26 04:31:00;;;;;;;0.25;0.25;;;;;;;;;;5000546;28;20022;-75
2023/10/26 04:33:26;;;;;;;0.50;0.40;;;;;;;;;;5017111;28;20033;-73
2023/10/26 04:35:51;;;;;;;1.75;0.47;;;;;;;;;;5017221;28;20022;-75
2023/10/26 04:38:16;;;;;;;1.00;0.50;;;;;;;;;;5000193;28;20080;-75
2023/10/26 04:40:42;;;;;;;1.17;0.50;;;;;;;;;;5017973;28;20294;-76
2023/10/26 04:43:11;;;;;;;0.30;0.30;;;;;;;;;;4999684;28;20034;-75
2023/10/26 04:45:36;;;;;;;0.47;0.32;;;;;;;;;;4998951;28;20069;-76
2023/10/26 04:48:02;;;;;;;1.48;0.50;;;;;;;;;;5016989;28;20029;-76
2023/10/26 04:50:30;;;;;;;0.32;0.32;;;;;;;;;;5017930;28;20029;-76
2023/10/26 04:52:55;;;;;;;0.30;0.30;;;;;;;;;;5001104;28;20049;-76
2023/10/26 04:55:20;;;;;;;0.73;0.50;;;;;;;;;;4999568;28;20022;-76
2023/10/26 04:57:45;;;;;;;0.40;0.40;;;;;;;;;;5017482;28;20030;-76
2023/10/26 05:00:11;;;;;;;0.30;0.30;;;;;;;;;;5017537;28;20022;-76
2023/10/26 05:02:37;;;;;;;0.70;0.45;;;;;;;;;;5018545;28;20104;-76
2023/10/26 05:05:04;;;;;;;0.30;0.30;;;;;;;;;;5017104;28;20473;-76
2023/10/26 05:07:30;;;;;;;0.38;0.30;;;;;;;;;;5016569;28;20041;-75
2023/10/26 05:09:55;;;;;;;2.55;0.30;;;;;;;;;;4998980;28;20053;-75
2023/10/26 05:12:21;;;;;;;1.92;0.30;;;;;;;;;;5016144;28;20030;-75
2023/10/26 05:14:46;;;;;;;0.40;0.40;;;;;;;;;;5016719;28;20042;-75
2023/10/26 05:17:11;;;;;;;0.30;0.30;;;;;;;;;;5017038;28;20026;-75
2023/10/26 05:19:36;;;;;;;0.70;0.43;;;;;;;;;;5016400;28;20291;-75
2023/10/26 05:22:03;;;;;;;0.65;0.30;;;;;;;;;;4999336;28;20033;-75
2023/10/26 05:24:29;;;;;;;0.75;0.32;;;;;;;;;;4999044;28;20021;-74
2023/10/26 05:26:54;;;;;;;0.50;0.40;;;;;;;;;;5014707;28;20477;-74
2023/10/26 05:29:19;;;;;;;2.78;0.50;;;;;;;;;;4997787;28;20025;-75
2023/10/26 05:31:45;;;;;;;2.07;0.50;;;;;;;;;;5015543;28;20101;-75
2023/10/26 05:34:11;;;;;;;1.13;0.50;;;;;;;;;;5013868;28;20662;-75
2023/10/26 05:36:36;;;;;;;0.95;0.50;;;;;;;;;;5013147;28;20030;-81
2023/10/26 05:39:01;;;;;;;1.17;0.50;;;;;;;;;;5016757;28;20022;-79
2023/10/26 05:41:26;;;;;;;0.50;0.40;;;;;;;;;;5017527;28;20033;-80
2023/10/26 05:43:52;;;;;;;1.30;0.40;;;;;;;;;;4999563;28;20085;-81
2023/10/26 05:46:18;;;;;;;2.30;0.50;;;;;;;;;;5016763;28;20022;-79
2023/10/26 05:48:43;;;;;;;0.40;0.35;;;;;;;;;;5001773;28;20060;-77
2023/10/26 05:51:08;;;;;;;0.50;0.30;;;;;;;;;;5017025;28;20076;-76
2023/10/26 05:53:34;;;;;;;2.15;0.50;;;;;;;;;;5017828;28;20282;-75
2023/10/26 05:55:59;;;;;;;1.73;0.90;;;;;;;;;;4999147;28;20030;-75
2023/10/26 05:58:26;;;;;;;4.03;2.03;;;;;;;;;;5016257;28;20080;-76
2023/10/26 06:00:51;;;;;;;2.00;1.20;;;;;;;;;;4998401;28;20100;-76
2023/10/26 06:03:16;;;;;;;0.88;0.70;;;;;;;;;;5016755;28;20481;-76
2023/10/26 06:05:42;;;;;;;1.30;0.80;;;;;;;;;;5015165;28;20030;-76
2023/10/26 06:08:07;;;;;;;3.40;1.90;;;;;;;;;;5017618;28;20065;-76
2023/10/26 06:10:32;;;;;;;1.05;0.70;;;;;;;;;;5000614;28;20044;-76
2023/10/26 06:13:02;;;;;;;1.98;0.80;;;;;;;;;;5016990;28;20033;-76
2023/10/26 06:15:27;;;;;;;1.00;0.70;;;;;;;;;;5017048;28;20018;-76
2023/10/26 06:17:53;;;;;;;1.60;0.60;;;;;;;;;;5017329;28;20037;-76
2023/10/26 06:20:19;;;;;;;0.60;0.60;;;;;;;;;;5016256;28;20026;-76
2023/10/26 06:22:44;;;;;;;0.55;0.50;;;;;;;;;;5017266;28;20022;-76
2023/10/26 06:25:10;;;;;;;0.65;0.55;;;;;;;;;;4999650;28;20025;-75
2023/10/26 06:27:36;;;;;;;0.40;0.30;;;;;;;;;;4999958;28;20065;-76
2023/10/26 06:30:01;;;;;;;0.77;0.50;;;;;;;;;;5017088;28;20022;-76
2023/10/26 06:32:26;;;;;;;0.50;0.50;;;;;;;;;;5017111;28;20385;-75
2023/10/26 06:34:52;;;;;;;1.00;0.43;;;;;;;;;;5017001;28;20056;-75
2023/10/26 06:37:17;;;;;;;0.57;0.50;;;;;;;;;;5000434;28;20477;-78
2023/10/26 06:39:42;;;;;;;1.02;0.40;;;;;;;;;;5015344;28;20026;-78
2023/10/26 06:42:07;;;;;;;0.50;0.50;;;;;;;;;;5014601;28;20048;-77
2023/10/26 06:44:33;;;;;;;0.77;0.60;;;;;;;;;;5015602;28;20373;-77
2023/10/26 06:46:58;;;;;;;0.30;0.30;;;;;;;;;;5015660;28;20072;-77
2023/10/26 06:49:23;;;;;;;1.10;0.60;;;;;;;;;;5014383;28;20045;-77
2023/10/26 06:51:49;;;;;;;0.73;0.50;;;;;;;;;;5000884;28;20109;-77
2023/10/26 06:54:15;;;;;;;1.25;0.50;;;;;;;;;;5018006;28;20022;-77
2023/10/26 06:56:41;;;;;;;1.20;0.70;;;;;;;;;;5000744;28;20029;-77
2023/10/26 06:59:06;;;;;;;2.72;0.50;;;;;;;;;;5000218;28;20037;-76
2023/10/26 07:01:33;;;;;;;1.75;0.60;;;;;;;;;;5018888;28;20025;-76
2023/10/26 07:03:59;;;;;;;0.80;0.60;;;;;;;;;;5000441;28;20026;-77
2023/10/26 07:06:24;;;;;;;2.20;0.60;;;;;;;;;;5019187;28;20035;-76
2023/10/26 07:08:50;;;;;;;1.38;0.73;;;;;;;;;;5019817;28;20026;-77
2023/10/26 07:11:15;;;;;;;0.75;0.60;;;;;;;;;;5019493;28;20018;-77
2023/10/26 07:13:40;;;;;;;2.35;0.60;;;;;;;;;;5019290;28;20030;-77
2023/10/26 07:16:06;;;;;;;0.93;0.65;;;;;;;;;;5019056;28;20028;-76
2023/10/26 07:18:32;;;;;;;1.30;0.90;;;;;;;;;;5019965;28;20040;-78
2023/10/26 07:20:57;;;;;;;1.50;0.73;;;;;;;;;;5018360;28;20404;-77
2023/10/26 07:23:22;;;;;;;0.70;0.60;;;;;;;;;;5000505;28;20022;-76
2023/10/26 07:25:48;;;;;;;1.10;0.70;;;;;;;;;;5018658;28;20108;-78
2023/10/26 07:28:13;;;;;;;1.73;0.60;;;;;;;;;;5000245;28;20025;-76
2023/10/26 07:30:40;;;;;;;1.98;0.82;;;;;;;;;;5019509;28;20030;-77
2023/10/26 07:33:05;;;;;;;1.95;0.60;;;;;;;;;;5017862;28;20499;-76
2023/10/26 07:35:31;;;;;;;0.70;0.60;;;;;;;;;;5018239;28;20050;-76
2023/10/26 07:37:56;;;;;;;1.20;0.63;;;;;;;;;;5019707;28;20061;-77
2023/10/26 07:40:21;;;;;;;1.57;0.70;;;;;;;;;;5018562;28;20058;-77
2023/10/26 07:42:47;;;;;;;2.03;0.75;;;;;;;;;;5018092;28;20268;-77
2023/10/26 07:45:12;;;;;;;1.80;0.70;;;;;;;;;;5016710;28;20455;-77
2023/10/26 07:47:38;;;;;;;1.73;1.00;;;;;;;;;;5016137;28;20084;-76
2023/10/26 07:50:03;;;;;;;0.85;0.65;;;;;;;;;;5018009;28;20097;-76
2023/10/26 07:52:29;;;;;;;3.55;0.70;;;;;;;;;;5017855;28;20030;-76
2023/10/26 07:54:54;;;;;;;1.75;0.70;;;;;;;;;;5000787;28;20029;-77
2023/10/26 07:57:20;;;;;;;0.52;0.50;;;;;;;;;;5018782;28;20060;-77
2023/10/26 07:59:45;;;;;;;0.75;0.43;;;;;;;;;;5018651;28;20119;-76
2023/10/26 08:02:10;;;;;;;0.55;0.50;;;;;;;;;;5017678;28;20607;-76
2023/10/26 08:04:35;;;;;;;0.80;0.80;;;;;;;;;;5001080;28;20037;-76
2023/10/26 08:07:01;;;;;;;0.68;0.55;;;;;;;;;;5001528;28;20046;-77
2023/10/26 08:09:31;;;;;;;1.08;0.40;;;;;;;;;;5019482;28;20477;-76
2023/10/26 08:11:56;;;;;;;1.95;0.65;;;;;;;;;;5001044;28;20014;-76
2023/10/26 08:14:22;;;;;;;1.05;0.60;;;;;;;;;;5003123;28;20556;-77
2023/10/26 08:16:47;;;;;;;0.80;0.60;;;;;;;;;;5018878;28;20026;-79
2023/10/26 08:19:13;;;;;;;0.85;0.70;;;;;;;;;;5017587;28;20111;-77
2023/10/26 08:21:38;;;;;;;0.80;0.65;;;;;;;;;;5000784;28;20511;-77
2023/10/26 08:24:04;;;;;;;1.60;0.73;;;;;;;;;;5018502;28;20022;-77
2023/10/26 08:26:29;;;;;;;0.70;0.65;;;;;;;;;;5001044;28;20030;-77
2023/10/26 08:28:54;;;;;;;1.67;0.60;;;;;;;;;;5000654;28;20040;-77
2023/10/26 08:31:19;;;;;;;0.57;0.57;;;;;;;;;;5018269;28;20504;-77
2023/10/26 08:33:45;;;;;;;2.83;0.60;;;;;;;;;;5000348;28;20440;-77
2023/10/26 08:36:10;;;;;;;1.95;0.70;;;;;;;;;;5000071;28;20061;-77
2023/10/26 08:38:35;;;;;;;1.17;0.70;;;;;;;;;;5019403;28;20535;-77
2023/10/26 08:41:01;;;;;;;0.80;0.80;;;;;;;;;;5019563;28;20029;-77
2023/10/26 08:43:28;;;;;;;0.60;0.60;;;;;;;;;;5019680;28;20068;-77
2023/10/26 08:45:59;;;;;;;0.98;0.80;;;;;;;;;;5001778;28;20120;-78
2023/10/26 08:48:28;;;;;;;0.68;0.68;;;;;;;;;;5002016;28;20033;-77
2023/10/26 08:50:53;;;;;;;1.25;0.80;;;;;;;;;;5018785;28;20534;-77
2023/10/26 08:53:18;;;;;;;1.17;0.75;;;;;;;;;;5017056;28;20112;-76
2023/10/26 08:55:44;;;;;;;0.77;0.70;;;;;;;;;;4999751;28;20022;-77
2023/10/26 08:58:09;;;;;;;1.00;0.70;;;;;;;;;;5018433;28;20112;-77
2023/10/26 09:00:36;;;;;;;3.80;0.80;;;;;;;;;;5018614;28;20030;-76
2023/10/26 09:03:02;;;;;;;1.30;1.00;;;;;;;;;;5019007;28;20384;-77
2023/10/26 09:05:27;;;;;;;2.28;1.00;;;;;;;;;;5000471;28;20041;-77
2023/10/26 09:07:53;;;;;;;1.38;0.90;;;;;;;;;;4999578;28;20022;-77
2023/10/26 09:10:32;;;;;;;1.25;1.00;;;;;;;;;;5017256;28;20489;-77
2023/10/26 09:13:03;;;;;;;0.95;0.90;;;;;;;;;;5016406;28;20083;-77
2023/10/26 09:15:29;;;;;;;0.70;0.70;;;;;;;;;;5000566;28;20029;-77
2023/10/26 09:18:00;;;;;;;1.45;0.95;;;;;;;;;;5018111;28;20046;-76
2023/10/26 09:20:26;;;;;;;1.02;0.90;;;;;;;;;;4998646;28;20037;-77
2023/10/26 09:22:51;;;;;;;6.68;1.40;;;;;;;;;;5016733;28;20038;-77
2023/10/26 09:25:17;;;;;;;1.70;1.17;;;;;;;;;;5016803;28;20026;-77
2023/10/26 09:27:44;;;;;;;1.35;0.95;;;;;;;;;;5017980;28;20033;-77
2023/10/26 09:30:28;;;;;;;1.67;1.25;;;;;;;;;;4999689;28;20032;-76
2023/10/26 09:32:53;;;;;;;1.33;1.10;;;;;;;;;;5016647;28;20026;-77
2023/10/26 09:35:32;;;;;;;4.47;1.00;;;;;;;;;;5015691;28;20088;-77
2023/10/26 09:37:58;;;;;;;1.33;1.05;;;;;;;;;;4999736;28;20029;-77
2023/10/26 09:40:25;;;;;;;1.50;1.17;;;;;;;;;;5018156;28;20112;-77
2023/10/26 09:42:51;;;;;;;4.10;1.10;;;;;;;;;;5000949;28;20485;-77
2023/10/26 09:45:18;;;;;;;2.95;1.10;;;;;;;;;;5017397;28;20022;-77
2023/10/26 09:47:44;;;;;;;1.48;1.15;;;;;;;;;;5017810;28;20148;-77
2023/10/26 09:50:10;;;;;;;3.67;0.95;;;;;;;;;;5017359;28;20036;-77
2023/10/26 09:52:35;;;;;;;2.35;1.00;;;;;;;;;;5016997;28;20022;-77
2023/10/26 09:55:03;;;;;;;1.15;1.00;;;;;;;;;;5017140;28;20026;-77
2023/10/26 09:57:35;;;;;;;5.45;3.05;;;;;;;;;;4999098;28;20485;-77
2023/10/26 10:00:07;;;;;;;2.25;1.30;;;;;;;;;;5016026;28;20029;-77
2023/10/26 10:02:32;;;;;;;1.42;1.20;;;;;;;;;;5014510;28;20045;-78
2023/10/26 10:04:58;;;;;;;1.05;0.90;;;;;;;;;;5014194;28;20026;-77
2023/10/26 10:07:43;;;;;;;1.33;1.23;;;;;;;;;;5015618;28;20057;-77
2023/10/26 10:10:10;;;;;;;1.10;1.02;;;;;;;;;;5016947;28;20026;-77
2023/10/26 10:12:38;;;;;;;2.00;1.20;;;;;;;;;;5016816;28;20022;-77
2023/10/26 10:15:13;;;;;;;1.60;1.38;;;;;;;;;;4998819;28;20599;-77
2023/10/26 10:17:44;;;;;;;1.83;1.00;;;;;;;;;;4999752;28;20022;-77
2023/10/26 10:20:18;;;;;;;2.45;1.00;;;;;;;;;;5017119;28;20034;-77
2023/10/26 10:22:43;;;;;;;;;;;;;;;;;;4999391;28;20030;-77
2023/10/26 10:25:10;;;;;;;1.88;1.02;;;;;;;;;;5000376;28;19924;-77
2023/10/26 10:27:36;;;;;;;1.52;1.10;;;;;;;;;;5020069;28;20444;-77
2023/10/26 10:30:08;;;;;;;1.20;1.05;;;;;;;;;;5019490;28;20022;-78
2023/10/26 10:32:42;;;;;;;4.13;1.30;;;;;;;;;;5019942;28;20131;-77
2023/10/26 10:35:11;;;;;;;3.33;0.90;;;;;;;;;;5002943;28;20485;-78
2023/10/26 10:37:38;;;;;;;4.78;1.23;;;;;;;;;;5018709;28;20077;-77
2023/10/26 10:40:10;;;;;;;1.17;1.08;;;;;;;;;;5020934;28;20030;-77
2023/10/26 10:42:37;;;;;;;1.40;1.30;;;;;;;;;;5002459;28;20631;-77
2023/10/26 10:45:03;;;;;;;1.67;1.20;;;;;;;;;;5020088;28;20033;-77
2023/10/26 10:47:29;;;;;;;1.08;1.00;;;;;;;;;;5002547;28;20392;-77
2023/10/26 10:50:20;;;;;;;1.15;0.90;;;;;;;;;;5019663;28;20022;-77
2023/10/26 10:52:53;;;;;;;1.30;0.98;;;;;;;;;;5019781;28;20091;-77
2023/10/26 10:55:29;;;;;;;1.10;1.00;;;;;;;;;;5019030;28;20481;-78
2023/10/26 10:58:00;;;;;;;1.88;0.88;;;;;;;;;;5019353;28;20481;-77
2023/10/26 11:00:42;;;;;;;3.95;0.90;;;;;;;;;;5020073;28;20034;-76
2023/10/26 11:03:08;;;;;;;3.15;0.90;;;;;;;;;;5019253;28;20030;-77
2023/10/26 11:05:39;;;;;;;1.75;0.95;;;;;;;;;;5019891;28;20033;-76
2023/10/26 11:08:05;;;;;;;1.95;0.90;;;;;;;;;;5002249;28;20026;-77
2023/10/26 11:10:31;;;;;;;1.70;0.95;;;;;;;;;;5019704;28;20018;-76
2023/10/26 11:12:56;;;;;;;1.02;0.85;;;;;;;;;;5020096;28;20081;-78
2023/10/26 11:15:33;;;;;;;0.80;0.80;;;;;;;;;;5019254;28;20037;-77
2023/10/26 11:18:00;;;;;;;0.90;0.88;;;;;;;;;;5002434;28;20642;-78
2023/10/26 11:20:34;;;;;;;0.95;0.80;;;;;;;;;;5002555;28;20476;-77
2023/10/26 11:23:00;;;;;;;0.82;0.80;;;;;;;;;;5002215;28;20053;-76
2023/10/26 11:25:26;;;;;;;0.68;0.68;;;;;;;;;;5019945;28;20400;-77
2023/10/26 11:27:51;;;;;;;1.40;0.90;;;;;;;;;;5018929;28;20030;-78
2023/10/26 11:30:17;;;;;;;0.70;0.70;;;;;;;;;;5019098;28;20503;-76
2023/10/26 11:32:42;;;;;;;1.08;0.70;;;;;;;;;;5018729;28;20029;-78
2023/10/26 11:35:10;;;;;;;1.80;0.80;;;;;;;;;;5000827;28;20026;-76
2023/10/26 11:37:40;;;;;;;0.80;0.60;;;;;;;;;;5001297;28;20036;-75
2023/10/26 11:40:07;;;;;;;0.70;0.70;;;;;;;;;;4998102;28;20076;-78
2023/10/26 11:42:53;;;;;;;1.70;1.05;;;;;;;;;;4999904;28;20032;-77
2023/10/26 11:45:21;;;;;;;0.60;0.60;;;;;;;;;;5018278;28;20084;-77
2023/10/26 11:47:57;;;;;;;1.42;0.65;;;;;;;;;;5000503;28;20065;-77
2023/10/26 11:50:25;;;;;;;1.30;0.70;;;;;;;;;;5016712;28;20472;-81
2023/10/26 11:52:52;;;;;;;0.70;0.45;;;;;;;;;;5019575;28;20045;-81
2023/10/26 11:55:18;;;;;;;0.93;0.40;;;;;;;;;;5018784;28;20062;-80
2023/10/26 11:57:43;;;;;;;1.10;0.70;;;;;;;;;;5020268;28;20044;-80
2023/10/26 12:00:09;;;;;;;2.25;0.88;;;;;;;;;;5020053;28;20081;-81
2023/10/26 12:02:35;;;;;;;0.55;0.55;;;;;;;;;;5019977;28;20168;-80
2023/10/26 12:05:01;;;;;;;0.60;0.50;;;;;;;;;;5019333;28;20033;-80
2023/10/26 12:07:26;;;;;;;1.65;0.50;;;;;;;;;;5018325;28;20030;-80
2023/10/26 12:09:51;;;;;;;1.75;0.60;;;;;;;;;;5018662;28;20421;-80
2023/10/26 12:12:16;;;;;;;0.45;0.45;;;;;;;;;;4999622;28;20029;-81
2023/10/26 12:14:43;;;;;;;1.50;0.70;;;;;;;;;;4999575;28;20469;-80
2023/10/26 12:17:08;;;;;;;1.45;0.70;;;;;;;;;;4999477;28;20026;-80
2023/10/26 12:19:34;;;;;;;1.10;0.80;;;;;;;;;;5016884;28;20413;-80
2023/10/26 12:21:59;;;;;;;1.65;0.70;;;;;;;;;;5016710;28;20416;-80
2023/10/26 12:24:24;;;;;;;3.30;0.80;;;;;;;;;;5018816;28;20032;-78
2023/10/26 12:26:58;;;;;;;1.75;0.80;;;;;;;;;;5017767;28;20033;-80
2023/10/26 12:29:23;;;;;;;0.70;0.70;;;;;;;;;;5001659;28;20496;-80
2023/10/26 12:31:49;;;;;;;2.35;1.17;;;;;;;;;;5001948;28;20025;-80
2023/10/26 12:34:14;;;;;;;1.17;0.80;;;;;;;;;;5017686;28;20032;-80
2023/10/26 12:36:39;;;;;;;1.52;0.93;;;;;;;;;;4996046;22;20047;-84
2023/10/26 12:39:05;;;;;;;1.33;1.00;;;;;;;;;;4960050;28;20081;-79
2023/10/26 12:41:30;;;;;;;1.40;0.90;;;;;;;;;;4961003;28;20019;-79
2023/10/26 12:43:55;;;;;;;4.35;0.90;;;;;;;;;;4979857;28;20030;-79
2023/10/26 12:46:20;;;;;;;1.73;1.00;;;;;;;;;;4979434;28;20153;-79
2023/10/26 12:48:46;;;;;;;1.85;1.25;;;;;;;;;;4979688;28;20042;-78
2023/10/26 12:51:11;;;;;;;1.45;1.00;;;;;;;;;;4983674;28;20019;-79
2023/10/26 12:53:36;;;;;;;3.17;1.10;;;;;;;;;;4983171;28;20490;-78
2023/10/26 12:56:04;;;;;;;1.35;0.98;;;;;;;;;;4982103;28;20391;-79
2023/10/26 12:58:34;;;;;;;1.13;1.00;;;;;;;;;;4980739;28;20037;-83
2023/10/26 13:00:59;;;;;;;5.68;1.30;;;;;;;;;;4961137;28;20102;-81
2023/10/26 13:03:24;;;;;;;1.70;1.13;;;;;;;;;;4960439;28;20026;-79
2023/10/26 13:05:49;;;;;;;3.93;1.47;;;;;;;;;;4977273;28;20041;-77
2023/10/26 13:08:15;;;;;;;1.80;1.00;;;;;;;;;;4977937;28;20271;-79
2023/10/26 13:10:40;;;;;;;1.90;1.20;;;;;;;;;;4980187;28;20033;-81
2023/10/26 13:13:09;;;;;;;1.23;1.10;;;;;;;;;;4980294;28;20026;-82
2023/10/26 13:15:34;;;;;;;1.80;1.27;;;;;;;;;;4962236;28;20034;-79
2023/10/26 13:17:59;;;;;;;2.67;1.05;;;;;;;;;;4979289;28;20035;-79
2023/10/26 13:20:25;;;;;;;2.75;1.45;;;;;;;;;;4962331;28;20031;-79
2023/10/26 13:22:51;;;;;;;1.85;1.15;;;;;;;;;;4978737;28;20033;-79
2023/10/26 13:25:16;;;;;;;1.33;1.23;;;;;;;;;;4979309;28;20026;-80
2023/10/26 13:27:41;;;;;;;1.58;1.30;;;;;;;;;;4978747;28;20059;-79
2023/10/26 13:30:07;;;;;;;1.95;1.17;;;;;;;;;;4961527;28;20029;-79
2023/10/26 13:32:32;;;;;;;3.78;1.50;;;;;;;;;;4979023;28;20035;-78
2023/10/26 13:34:58;;;;;;;1.88;1.00;;;;;;;;;;4978306;28;20026;-79
2023/10/26 13:37:23;;;;;;;2.53;1.30;;;;;;;;;;4979080;28;20444;-80
2023/10/26 13:39:48;;;;;;;1.23;1.13;;;;;;;;;;4961759;28;20267;-79
2023/10/26 13:42:13;;;;;;;5.32;1.30;;;;;;;;;;4977244;28;20280;-79
2023/10/26 13:44:38;;;;;;;2.10;1.20;;;;;;;;;;4958101;28;20035;-78
2023/10/26 13:47:04;;;;;;;2.08;1.30;;;;;;;;;;4973846;28;20054;-79
2023/10/26 13:49:29;;;;;;;2.83;1.23;;;;;;;;;;4974598;28;20441;-77
2023/10/26 13:51:54;;;;;;;2.83;1.30;;;;;;;;;;4974909;28;20031;-79
2023/10/26 13:54:21;;;;;;;2.03;0.90;;;;;;;;;;4958375;28;20344;-78
2023/10/26 13:56:46;;;;;;;2.15;1.30;;;;;;;;;;4974899;28;20027;-79
2023/10/26 13:59:11;;;;;;;1.23;1.05;;;;;;;;;;4975090;28;20117;-79
2023/10/26 14:01:36;;;;;;;1.35;0.95;;;;;;;;;;4975445;28;20027;-79
2023/10/26 14:04:02;;;;;;;1.70;0.93;;;;;;;;;;4976135;28;20027;-79
2023/10/26 14:06:27;;;;;;;3.15;0.98;;;;;;;;;;4974399;28;20264;-79
2023/10/26 14:08:53;;;;;;;2.92;1.00;;;;;;;;;;4975786;28;20446;-77
2023/10/26 14:11:18;;;;;;;1.83;1.10;;;;;;;;;;4975909;28;20034;-78
2023/10/26 14:13:43;;;;;;;1.60;1.00;;;;;;;;;;4976369;28;20042;-78
2023/10/26 14:16:10;;;;;;;2.60;0.98;;;;;;;;;;4975765;28;20453;-78
2023/10/26 14:18:36;;;;;;;2.35;1.00;;;;;;;;;;4959031;28;20027;-78
2023/10/26 14:21:01;;;;;;;2.45;1.17;;;;;;;;;;4975645;28;20497;-79
2023/10/26 14:23:26;;;;;;;2.90;1.08;;;;;;;;;;4975116;28;20023;-77
2023/10/26 14:25:51;;;;;;;2.33;1.38;;;;;;;;;;4974167;28;20026;-77
2023/10/26 14:28:17;;;;;;;1.23;0.98;;;;;;;;;;4974448;28;20034;-77
2023/10/26 14:30:42;;;;;;;1.53;1.10;;;;;;;;;;4973748;28;20026;-78
2023/10/26 14:33:07;;;;;;;1.05;0.90;;;;;;;;;;4972305;28;20951;-78
2023/10/26 14:35:32;;;;;;;2.92;1.33;;;;;;;;;;4973698;28;20034;-77
2023/10/26 14:37:59;;;;;;;1.00;0.90;;;;;;;;;;4974039;28;20061;-77